Back to Top

Language: 

My Weather Underground Personal Weather Station Historical Data with Graphs...

Delerius Weather Station Historical Data
Daily Summary for December 17, 2017 Units:  English    Metric   Both
« Previous Day
Next Day »
Daily Weekly Monthly Yearly Custom
  High: Low: Average:
Temperature: 48.9 °F 26.4 °F 38.5 °F
Dew Point: 46.7 °F 24.9 °F 36.4 °F
Humidity: 96 % 83 % 92 %
Wind Speed: 15.0 mph 0.0 mph 4.2 mph
Wind Gust: 26.0 mph - -
Wind:- - West
Pressure: 30.21 in 29.95 in -
Precipitation: 0.05 in    
Historical Graphs
 
 
Tabular Data for December 17, 2017
Time Temperature Dew Point Pressure Wind Wind Speed Wind Gust Humidity Rainfall Rate (Hourly) solar Conditions
00:01 27.9 °F 26.4 °F 30.20 in Calm   1.0 mph 94 % 0.00 in 0 W/m2
00:06 27.9 °F 26.4 °F 30.20 in Calm     94 % 0.00 in 0 W/m2
00:07 27.9 °F 26.4 °F 30.20 in Calm     94 % 0.00 in 0 W/m2
00:12 27.9 °F 26.4 °F 30.20 in Calm     94 % 0.00 in 0 W/m2
00:17 27.7 °F 26.2 °F 30.20 in Calm     94 % 0.00 in 0 W/m2
00:18 27.7 °F 26.2 °F 30.20 in Calm     94 % 0.00 in 0 W/m2
00:23 27.3 °F 25.8 °F 30.20 in Calm     94 % 0.00 in 0 W/m2
00:28 27.1 °F 25.6 °F 30.19 in Calm     94 % 0.00 in 0 W/m2
00:30 27.1 °F 25.6 °F 30.20 in Calm     94 % 0.00 in 0 W/m2
00:35 27.0 °F 25.5 °F 30.20 in Calm     94 % 0.00 in 0 W/m2
00:38 27.0 °F 25.5 °F 30.20 in Calm     94 % 0.00 in 0 W/m2
00:43 26.8 °F 25.3 °F 30.20 in Calm     94 % 0.00 in 0 W/m2
00:47 26.8 °F 25.3 °F 30.20 in Calm     94 % 0.00 in 0 W/m2
00:53 26.8 °F 25.3 °F 30.20 in Calm     94 % 0.00 in 0 W/m2
00:58 26.6 °F 25.1 °F 30.20 in Calm     94 % 0.00 in 0 W/m2
01:01 26.4 °F 24.9 °F 30.20 in WNW 1.0 mph 2.0 mph 94 % 0.00 in 0 W/m2
01:02 26.4 °F 24.9 °F 30.20 in WNW 1.0 mph 2.0 mph 94 % 0.00 in 0 W/m2
01:07 26.4 °F 24.9 °F 30.20 in Calm     94 % 0.00 in 0 W/m2
01:09 26.6 °F 25.1 °F 30.20 in Calm     94 % 0.00 in 0 W/m2
01:11 26.6 °F 25.4 °F 30.20 in Calm     95 % 0.00 in 0 W/m2
01:14 26.8 °F 25.5 °F 30.20 in Calm     95 % 0.00 in 0 W/m2
01:19 26.8 °F 25.5 °F 30.20 in Calm     95 % 0.00 in 0 W/m2
01:20 26.8 °F 25.5 °F 30.20 in Calm     95 % 0.00 in 0 W/m2
01:25 26.8 °F 25.5 °F 30.20 in Calm     95 % 0.00 in 0 W/m2
01:26 26.8 °F 25.5 °F 30.20 in Calm     95 % 0.00 in 0 W/m2
01:31 26.8 °F 25.5 °F 30.20 in Calm     95 % 0.00 in 0 W/m2
01:34 27.0 °F 25.7 °F 30.20 in Calm     95 % 0.00 in 0 W/m2
01:39 27.1 °F 25.9 °F 30.20 in Calm     95 % 0.00 in 0 W/m2
01:41 27.1 °F 25.9 °F 30.20 in Calm     95 % 0.00 in 0 W/m2
01:46 27.1 °F 25.9 °F 30.20 in Calm     95 % 0.00 in 0 W/m2
01:47 27.1 °F 25.9 °F 30.20 in Calm     95 % 0.00 in 0 W/m2
01:48 27.1 °F 25.9 °F 30.20 in Calm     95 % 0.00 in 0 W/m2
01:53 27.1 °F 25.9 °F 30.20 in Calm     95 % 0.00 in 0 W/m2
01:58 27.3 °F 26.1 °F 30.20 in Calm     95 % 0.00 in 0 W/m2
02:00 27.3 °F 26.1 °F 30.20 in Calm     95 % 0.00 in 0 W/m2
02:06 27.3 °F 26.1 °F 30.20 in Calm   2.0 mph 95 % 0.00 in 0 W/m2
02:08 27.3 °F 26.1 °F 30.20 in WNW 1.0 mph 4.0 mph 95 % 0.00 in 0 W/m2
02:13 27.3 °F 26.1 °F 30.21 in Calm     95 % 0.00 in 0 W/m2
02:16 27.3 °F 26.1 °F 30.21 in Calm     95 % 0.00 in 0 W/m2
02:19 27.3 °F 26.1 °F 30.21 in Calm     95 % 0.00 in 0 W/m2
02:21 27.1 °F 25.9 °F 30.21 in Calm     95 % 0.00 in 0 W/m2
02:23 27.1 °F 25.9 °F 30.21 in Calm     95 % 0.00 in 0 W/m2
02:28 27.1 °F 25.9 °F 30.21 in Calm     95 % 0.00 in 0 W/m2
02:29 27.0 °F 25.7 °F 30.21 in Calm     95 % 0.00 in 0 W/m2
02:34 27.0 °F 25.7 °F 30.21 in Calm     95 % 0.00 in 0 W/m2
02:35 27.0 °F 25.7 °F 30.21 in Calm     95 % 0.00 in 0 W/m2
02:36 27.0 °F 25.7 °F 30.21 in Calm     95 % 0.00 in 0 W/m2
02:40 26.8 °F 25.3 °F 30.21 in Calm     94 % 0.00 in 0 W/m2
02:41 26.8 °F 25.5 °F 30.21 in Calm   2.0 mph 95 % 0.00 in 0 W/m2
02:45 27.1 °F 25.9 °F 30.20 in WNW 1.0 mph 2.0 mph 95 % 0.00 in 0 W/m2
02:46 27.1 °F 25.9 °F 30.20 in Calm   1.0 mph 95 % 0.00 in 0 W/m2
02:49 27.3 °F 26.1 °F 30.20 in Calm     95 % 0.00 in 0 W/m2
02:51 27.3 °F 26.1 °F 30.20 in Calm     95 % 0.00 in 0 W/m2
02:55 27.3 °F 26.1 °F 30.20 in Calm     95 % 0.00 in 0 W/m2
02:56 27.5 °F 26.3 °F 30.20 in Calm     95 % 0.00 in 0 W/m2
03:01 27.7 °F 26.4 °F 30.20 in Calm     95 % 0.00 in 0 W/m2
03:04 27.7 °F 26.4 °F 30.20 in Calm     95 % 0.00 in 0 W/m2
03:08 27.7 °F 26.4 °F 30.20 in Calm     95 % 0.00 in 0 W/m2
03:13 27.9 °F 26.6 °F 30.19 in Calm     95 % 0.00 in 0 W/m2
03:18 28.2 °F 27.2 °F 30.19 in Calm     96 % 0.00 in 0 W/m2
03:23 28.4 °F 27.2 °F 30.19 in Calm   1.0 mph 95 % 0.00 in 0 W/m2
03:29 28.6 °F 27.6 °F 30.19 in Calm     96 % 0.00 in 0 W/m2
03:33 28.6 °F 27.3 °F 30.19 in Calm   1.0 mph 95 % 0.00 in 0 W/m2
03:38 28.8 °F 27.5 °F 30.19 in Calm     95 % 0.00 in 0 W/m2
03:39 28.8 °F 27.5 °F 30.19 in Calm     95 % 0.00 in 0 W/m2
03:44 28.8 °F 27.5 °F 30.19 in Calm     95 % 0.00 in 0 W/m2
03:48 28.6 °F 27.3 °F 30.19 in Calm     95 % 0.00 in 0 W/m2
03:53 28.6 °F 27.3 °F 30.19 in Calm     95 % 0.00 in 0 W/m2
03:55 28.6 °F 27.3 °F 30.19 in Calm     95 % 0.00 in 0 W/m2
04:01 28.8 °F 27.5 °F 30.18 in Calm     95 % 0.00 in 0 W/m2
04:02 28.8 °F 27.5 °F 30.18 in Calm     95 % 0.00 in 0 W/m2
04:07 28.8 °F 27.5 °F 30.18 in Calm     95 % 0.00 in 0 W/m2
04:12 28.9 °F 27.7 °F 30.18 in Calm     95 % 0.00 in 0 W/m2
04:17 29.1 °F 27.9 °F 30.18 in Calm     95 % 0.00 in 0 W/m2
04:19 29.1 °F 28.1 °F 30.17 in Calm     96 % 0.00 in 0 W/m2
04:22 29.3 °F 28.3 °F 30.17 in Calm     96 % 0.00 in 0 W/m2
04:24 29.5 °F 28.5 °F 30.17 in Calm     96 % 0.00 in 0 W/m2
04:29 29.5 °F 28.5 °F 30.18 in Calm     96 % 0.00 in 0 W/m2
04:30 29.5 °F 28.5 °F 30.18 in Calm     96 % 0.00 in 0 W/m2
04:35 29.7 °F 28.4 °F 30.18 in Calm     95 % 0.00 in 0 W/m2
04:36 29.7 °F 28.4 °F 30.18 in Calm     95 % 0.00 in 0 W/m2
04:41 29.7 °F 28.4 °F 30.18 in Calm     95 % 0.00 in 0 W/m2
04:44 29.8 °F 28.8 °F 30.18 in Calm     96 % 0.00 in 0 W/m2
04:48 30.0 °F 29.0 °F 30.18 in Calm     96 % 0.00 in 0 W/m2
04:50 30.0 °F 29.0 °F 30.18 in Calm     96 % 0.00 in 0 W/m2
04:53 30.2 °F 29.2 °F 30.18 in Calm     96 % 0.00 in 0 W/m2
04:56 30.4 °F 29.4 °F 30.18 in Calm     96 % 0.00 in 0 W/m2
05:01 30.6 °F 29.6 °F 30.17 in Calm     96 % 0.00 in 0 W/m2
05:04 30.6 °F 29.6 °F 30.17 in Calm     96 % 0.00 in 0 W/m2
05:07 30.7 °F 29.7 °F 30.17 in Calm     96 % 0.00 in 0 W/m2
05:09 30.7 °F 29.7 °F 30.17 in Calm     96 % 0.00 in 0 W/m2
05:16 30.9 °F 29.9 °F 30.17 in Calm     96 % 0.00 in 0 W/m2
05:19 31.1 °F 30.1 °F 30.17 in Calm     96 % 0.00 in 0 W/m2
05:24 30.9 °F 29.9 °F 30.17 in Calm     96 % 0.00 in 0 W/m2
05:29 30.9 °F 29.9 °F 30.17 in Calm     96 % 0.00 in 0 W/m2
05:30 30.9 °F 29.9 °F 30.17 in Calm     96 % 0.00 in 0 W/m2
05:35 31.3 °F 30.3 °F 30.17 in Calm     96 % 0.00 in 0 W/m2
05:36 31.3 °F 30.3 °F 30.17 in Calm     96 % 0.00 in 0 W/m2
05:40 31.5 °F 30.5 °F 30.17 in Calm     96 % 0.00 in 0 W/m2
05:41 31.5 °F 30.5 °F 30.17 in Calm     96 % 0.00 in 0 W/m2
05:46 31.3 °F 30.3 °F 30.17 in Calm     96 % 0.00 in 0 W/m2
05:47 31.3 °F 30.3 °F 30.16 in Calm     96 % 0.00 in 0 W/m2
05:50 31.3 °F 30.0 °F 30.16 in Calm     95 % 0.00 in 0 W/m2
05:55 31.3 °F 30.3 °F 30.16 in Calm     96 % 0.00 in 0 W/m2
05:57 31.5 °F 30.5 °F 30.16 in Calm     96 % 0.00 in 0 W/m2
06:02 31.6 °F 30.6 °F 30.16 in Calm     96 % 0.00 in 0 W/m2
06:03 31.6 °F 30.6 °F 30.16 in Calm     96 % 0.00 in 0 W/m2
06:06 31.6 °F 30.6 °F 30.16 in Calm     96 % 0.00 in 0 W/m2
06:10 31.6 °F 30.6 °F 30.16 in Calm     96 % 0.00 in 0 W/m2
06:12 31.6 °F 30.6 °F 30.16 in Calm     96 % 0.00 in 0 W/m2
06:17 31.6 °F 30.6 °F 30.16 in Calm     96 % 0.00 in 0 W/m2
06:18 31.6 °F 30.6 °F 30.16 in Calm     96 % 0.00 in 0 W/m2
06:23 31.8 °F 30.8 °F 30.15 in Calm     96 % 0.00 in 0 W/m2
06:24 31.8 °F 30.8 °F 30.15 in Calm     96 % 0.00 in 0 W/m2
06:26 32.0 °F 31.0 °F 30.15 in Calm     96 % 0.00 in 0 W/m2
06:31 32.5 °F 31.5 °F 30.15 in Calm     96 % 0.00 in 0 W/m2
06:36 32.7 °F 31.7 °F 30.15 in Calm     96 % 0.00 in 0 W/m2
06:37 32.7 °F 31.7 °F 30.15 in Calm     96 % 0.00 in 0 W/m2
06:40 32.9 °F 31.9 °F 30.15 in Calm     96 % 0.00 in 0 W/m2
06:42 32.9 °F 31.9 °F 30.15 in Calm     96 % 0.00 in 0 W/m2
06:46 33.1 °F 32.1 °F 30.15 in Calm     96 % 0.00 in 0 W/m2
06:51 33.4 °F 32.4 °F 30.15 in SE 1.0 mph 6.0 mph 96 % 0.00 in 0 W/m2
06:56 33.8 °F 32.8 °F 30.15 in Calm   4.0 mph 96 % 0.00 in 0 W/m2
07:01 34.2 °F 33.1 °F 30.15 in Calm     96 % 0.00 in 0 W/m2
07:06 34.3 °F 33.3 °F 30.15 in Calm   2.0 mph 96 % 0.00 in 0 W/m2
07:07 34.3 °F 33.3 °F 30.15 in Calm     96 % 0.00 in 0 W/m2
07:12 34.3 °F 33.3 °F 30.15 in Calm     96 % 0.00 in 0 W/m2
07:13 34.3 °F 33.3 °F 30.15 in Calm     96 % 0.00 in 0 W/m2
07:18 34.5 °F 33.5 °F 30.14 in Calm   2.0 mph 96 % 0.00 in 0 W/m2
07:21 34.5 °F 33.5 °F 30.14 in SSE 1.0 mph 2.0 mph 96 % 0.00 in 0 W/m2
07:23 34.7 °F 33.7 °F 30.14 in Calm   2.0 mph 96 % 0.00 in 0 W/m2
07:30 34.9 °F 33.9 °F 30.14 in Calm   2.0 mph 96 % 0.00 in 0 W/m2
07:32 34.9 °F 33.9 °F 30.14 in Calm   1.0 mph 96 % 0.00 in 0 W/m2
07:37 34.9 °F 33.9 °F 30.13 in Calm   1.0 mph 96 % 0.00 in 0 W/m2
07:38 34.9 °F 33.9 °F 30.13 in Calm   1.0 mph 96 % 0.00 in 0 W/m2
07:43 34.9 °F 33.9 °F 30.13 in Calm     96 % 0.00 in 0 W/m2
07:44 34.9 °F 33.9 °F 30.13 in Calm     96 % 0.00 in 0 W/m2
07:45 34.9 °F 33.9 °F 30.13 in Calm     96 % 0.00 in 0 W/m2
07:50 34.7 °F 33.4 °F 30.13 in Calm     95 % 0.00 in 0 W/m2
07:57 34.5 °F 33.2 °F 30.13 in Calm     95 % 0.00 in 0 W/m2
08:03 34.3 °F 33.1 °F 30.13 in Calm     95 % 0.00 in 0 W/m2
08:08 34.2 °F 32.9 °F 30.12 in Calm     95 % 0.00 in 0 W/m2
08:10 34.2 °F 33.1 °F 30.12 in Calm     96 % 0.00 in 0 W/m2
08:11 34.2 °F 33.1 °F 30.12 in Calm     96 % 0.00 in 0 W/m2
08:16 34.3 °F 33.3 °F 30.12 in SSE 1.0 mph 2.0 mph 96 % 0.00 in 0 W/m2
08:19 34.3 °F 33.3 °F 30.12 in SSE 1.0 mph 2.0 mph 96 % 0.00 in 0 W/m2
08:24 34.5 °F 33.5 °F 30.12 in Calm     96 % 0.00 in 0 W/m2
08:26 34.5 °F 33.5 °F 30.12 in Calm   1.0 mph 96 % 0.00 in 5 W/m2
08:30 34.9 °F 33.9 °F 30.11 in SE 1.0 mph 3.0 mph 96 % 0.00 in 5 W/m2
08:32 34.9 °F 33.9 °F 30.11 in ESE 2.0 mph 5.0 mph 96 % 0.00 in 5 W/m2
08:36 35.1 °F 34.0 °F 30.11 in ESE 1.0 mph 3.0 mph 96 % 0.00 in 7 W/m2
08:38 35.1 °F 34.0 °F 30.11 in ESE 1.0 mph 3.0 mph 96 % 0.00 in 7 W/m2
08:42 35.1 °F 34.0 °F 30.12 in Calm   2.0 mph 96 % 0.00 in 9 W/m2
08:44 35.1 °F 34.0 °F 30.11 in Calm     96 % 0.00 in 9 W/m2
08:49 35.1 °F 34.0 °F 30.11 in Calm   2.0 mph 96 % 0.00 in 11 W/m2
08:54 35.1 °F 34.0 °F 30.11 in Calm     96 % 0.00 in 12 W/m2
08:59 35.1 °F 34.0 °F 30.11 in Calm     96 % 0.00 in 18 W/m2
09:02 35.1 °F 34.0 °F 30.11 in Calm     96 % 0.00 in 21 W/m2
09:07 35.1 °F 34.0 °F 30.11 in Calm     96 % 0.00 in 25 W/m2
09:11 35.1 °F 34.0 °F 30.11 in Calm     96 % 0.00 in 25 W/m2
09:16 35.2 °F 34.2 °F 30.11 in Calm     96 % 0.00 in 19 W/m2
09:21 35.6 °F 34.6 °F 30.11 in Calm     96 % 0.00 in 16 W/m2
09:23 35.8 °F 34.8 °F 30.11 in Calm     96 % 0.00 in 14 W/m2
09:28 36.0 °F 34.9 °F 30.11 in Calm     96 % 0.00 in 11 W/m2
09:29 36.0 °F 34.9 °F 30.11 in Calm     96 % 0.00 in 11 W/m2
09:32 36.1 °F 35.1 °F 30.11 in Calm     96 % 0.00 in 11 W/m2
09:35 36.1 °F 35.1 °F 30.11 in Calm     96 % 0.00 in 11 W/m2
09:40 36.3 °F 35.3 °F 30.10 in South 1.0 mph 5.0 mph 96 % 0.01 in 11 W/m2
09:41 36.3 °F 35.3 °F 30.10 in South 2.0 mph 6.0 mph 96 % 0.01 in 11 W/m2
09:43 36.5 °F 35.5 °F 30.10 in South 3.0 mph 6.0 mph 96 % 0.01 in 11 W/m2
09:48 36.9 °F 35.8 °F 30.10 in South 3.0 mph 6.0 mph 96 % 0.01 in 11 W/m2
09:49 36.9 °F 35.8 °F 30.10 in South 3.0 mph 6.0 mph 96 % 0.01 in 11 W/m2
09:54 37.4 °F 36.4 °F 30.10 in SSW 2.0 mph 7.0 mph 96 % 0.01 in 14 W/m2
09:59 37.8 °F 36.7 °F 30.10 in SSW 3.0 mph 8.0 mph 96 % 0.02 in 16 W/m2
10:00 37.8 °F 36.7 °F 30.10 in SW 2.0 mph 5.0 mph 96 % 0.02 in 14 W/m2
10:05 38.1 °F 37.1 °F 30.11 in SW 2.0 mph 5.0 mph 96 % 0.02 in 18 W/m2
10:06 38.1 °F 37.1 °F 30.11 in SW 1.0 mph 6.0 mph 96 % 0.02 in 18 W/m2
10:11 38.3 °F 37.3 °F 30.11 in SSW 3.0 mph 8.0 mph 96 % 0.02 in 21 W/m2
10:16 38.5 °F 37.4 °F 30.11 in SSW 2.0 mph 5.0 mph 96 % 0.02 in 25 W/m2
10:21 38.5 °F 37.4 °F 30.11 in SSW 2.0 mph 5.0 mph 96 % 0.03 in 19 W/m2
10:26 38.5 °F 37.4 °F 30.11 in SSW 1.0 mph 5.0 mph 96 % 0.03 in 21 W/m2
10:29 38.5 °F 37.4 °F 30.10 in SSW 1.0 mph 4.0 mph 96 % 0.04 in 23 W/m2
10:34 38.7 °F 37.6 °F 30.10 in SSW 2.0 mph 5.0 mph 96 % 0.04 in 23 W/m2
10:36 38.8 °F 37.8 °F 30.10 in SSW 1.0 mph 4.0 mph 96 % 0.03 in 19 W/m2
10:41 39.2 °F 38.2 °F 30.10 in SSW 2.0 mph 5.0 mph 96 % 0.03 in 16 W/m2
10:43 39.2 °F 38.2 °F 30.10 in South 1.0 mph 4.0 mph 96 % 0.03 in 16 W/m2
10:48 39.4 °F 38.3 °F 30.09 in South 2.0 mph 5.0 mph 96 % 0.03 in 19 W/m2
10:50 39.4 °F 38.3 °F 30.09 in South 2.0 mph 4.0 mph 96 % 0.03 in 21 W/m2
10:52 39.4 °F 38.3 °F 30.09 in SSE 2.0 mph 5.0 mph 96 % 0.03 in 23 W/m2
10:57 39.6 °F 38.5 °F 30.09 in SSE 1.0 mph 4.0 mph 96 % 0.02 in 25 W/m2
10:59 39.6 °F 38.5 °F 30.09 in SSE 1.0 mph 4.0 mph 96 % 0.02 in 25 W/m2
11:05 39.6 °F 38.5 °F 30.08 in SSE 3.0 mph 6.0 mph 96 % 0.02 in 25 W/m2
11:06 39.6 °F 38.5 °F 30.08 in South 2.0 mph 6.0 mph 96 % 0.02 in 25 W/m2
11:11 39.6 °F 38.5 °F 30.07 in SSE 3.0 mph 5.0 mph 96 % 0.02 in 25 W/m2
11:16 39.7 °F 38.7 °F 30.07 in South 2.0 mph 5.0 mph 96 % 0.02 in 26 W/m2
11:17 39.7 °F 38.7 °F 30.07 in South 3.0 mph 5.0 mph 96 % 0.02 in 26 W/m2
11:22 40.1 °F 39.1 °F 30.07 in South 5.0 mph 12.0 mph 96 % 0.02 in 37 W/m2
11:24 40.3 °F 39.2 °F 30.07 in SSW 4.0 mph 8.0 mph 96 % 0.02 in 37 W/m2
11:29 40.6 °F 39.6 °F 30.07 in SSW 6.0 mph 11.0 mph 96 % 0.01 in 39 W/m2
11:30 40.8 °F 39.8 °F 30.07 in SSW 5.0 mph 8.0 mph 96 % 0.01 in 39 W/m2
11:35 41.0 °F 39.9 °F 30.06 in SSW 6.0 mph 9.0 mph 96 % 0.01 in 53 W/m2
11:39 41.2 °F 40.1 °F 30.06 in SSW 6.0 mph 9.0 mph 96 % 0.01 in 53 W/m2
11:41 41.2 °F 40.1 °F 30.05 in SSW 7.0 mph 12.0 mph 96 % 0.01 in 58 W/m2
11:45 41.2 °F 40.1 °F 30.04 in SSW 5.0 mph 8.0 mph 96 % 0.01 in 141 W/m2
11:50 41.7 °F 40.7 °F 30.04 in SW 8.0 mph 14.0 mph 96 % 0.01 in 272 W/m2
11:53 42.4 °F 41.4 °F 30.04 in SSW 8.0 mph 11.0 mph 96 % 0.01 in 322 W/m2
11:56 42.6 °F 41.6 °F 30.03 in SSW 7.0 mph 12.0 mph 96 % 0.01 in 325 W/m2
11:59 43.2 °F 42.1 °F 30.03 in SSW 7.0 mph 12.0 mph 96 % 0.01 in 332 W/m2
12:04 43.3 °F 42.3 °F 30.03 in South 10.0 mph 18.0 mph 96 % 0.00 in 322 W/m2
12:05 43.3 °F 42.3 °F 30.03 in South 9.0 mph 18.0 mph 96 % 0.00 in 186 W/m2
12:10 43.5 °F 42.2 °F 30.03 in SSW 8.0 mph 14.0 mph 95 % 0.00 in 262 W/m2
12:11 43.5 °F 42.2 °F 30.03 in SSW 8.0 mph 13.0 mph 95 % 0.00 in 211 W/m2
12:16 43.7 °F 42.4 °F 30.02 in SSW 8.0 mph 14.0 mph 95 % 0.00 in 135 W/m2
12:21 43.7 °F 42.1 °F 30.02 in SW 8.0 mph 14.0 mph 94 % 0.00 in 167 W/m2
12:22 43.7 °F 42.1 °F 30.02 in SW 8.0 mph 14.0 mph 94 % 0.00 in 165 W/m2
12:27 43.7 °F 42.1 °F 30.01 in SW 9.0 mph 16.0 mph 94 % 0.00 in 97 W/m2
12:28 43.7 °F 42.1 °F 30.01 in SW 10.0 mph 14.0 mph 94 % 0.00 in 97 W/m2
12:33 43.5 °F 41.6 °F 30.01 in SW 9.0 mph 14.0 mph 93 % 0.00 in 100 W/m2
12:38 43.5 °F 41.6 °F 30.01 in SW 7.0 mph 12.0 mph 93 % 0.00 in 102 W/m2
12:40 43.5 °F 41.6 °F 30.01 in SW 7.0 mph 12.0 mph 93 % 0.00 in 102 W/m2
12:45 43.5 °F 41.6 °F 30.00 in SW 5.0 mph 11.0 mph 93 % 0.00 in 105 W/m2
12:46 43.5 °F 41.6 °F 30.00 in SSW 6.0 mph 11.0 mph 93 % 0.00 in 105 W/m2
12:51 43.7 °F 41.8 °F 30.00 in SSW 3.0 mph 6.0 mph 93 % 0.00 in 86 W/m2
12:52 43.7 °F 41.8 °F 30.00 in SSW 3.0 mph 6.0 mph 93 % 0.00 in 84 W/m2
12:57 43.7 °F 41.8 °F 30.00 in SSW 3.0 mph 6.0 mph 93 % 0.00 in 86 W/m2
12:58 43.7 °F 41.8 °F 30.00 in SSW 1.0 mph 4.0 mph 93 % 0.00 in 83 W/m2
13:03 43.9 °F 42.0 °F 29.99 in South 5.0 mph 7.0 mph 93 % 0.00 in 93 W/m2
13:10 43.9 °F 42.0 °F 29.98 in South 3.0 mph 7.0 mph 93 % 0.00 in 93 W/m2
13:12 43.9 °F 42.0 °F 29.99 in South 3.0 mph 7.0 mph 93 % 0.00 in 90 W/m2
13:13 44.1 °F 42.2 °F 29.98 in South 3.0 mph 7.0 mph 93 % 0.00 in 88 W/m2
13:18 44.1 °F 42.2 °F 29.98 in South 1.0 mph 6.0 mph 93 % 0.00 in 83 W/m2
13:28 44.4 °F 42.8 °F 29.98 in SSW 4.0 mph 7.0 mph 94 % 0.00 in 72 W/m2
13:30 44.4 °F 42.8 °F 29.98 in SW 3.0 mph 7.0 mph 94 % 0.00 in 70 W/m2
13:35 44.8 °F 43.2 °F 29.98 in WSW 5.0 mph 7.0 mph 94 % 0.00 in 51 W/m2
13:37 45.0 °F 43.3 °F 29.98 in WSW 2.0 mph 5.0 mph 94 % 0.00 in 47 W/m2
13:41 45.1 °F 43.5 °F 29.97 in WSW 2.0 mph 5.0 mph 94 % 0.00 in 47 W/m2
13:45 45.7 °F 44.1 °F 29.97 in WSW 5.0 mph 9.0 mph 94 % 0.00 in 54 W/m2
13:50 46.0 °F 44.4 °F 29.96 in WSW 4.0 mph 6.0 mph 94 % 0.00 in 51 W/m2
13:51 46.0 °F 44.4 °F 29.96 in WSW 6.0 mph 12.0 mph 94 % 0.00 in 53 W/m2
13:52 46.0 °F 44.4 °F 29.96 in WSW 7.0 mph 12.0 mph 94 % 0.00 in 51 W/m2
13:57 46.4 °F 44.5 °F 29.96 in WSW 7.0 mph 11.0 mph 93 % 0.00 in 65 W/m2
14:02 46.8 °F 44.8 °F 29.96 in WSW 7.0 mph 13.0 mph 93 % 0.00 in 67 W/m2
14:06 46.9 °F 45.0 °F 29.96 in WSW 11.0 mph 19.0 mph 93 % 0.00 in 63 W/m2
14:08 47.1 °F 45.2 °F 29.96 in WSW 8.0 mph 14.0 mph 93 % 0.00 in 60 W/m2
14:13 47.7 °F 45.5 °F 29.95 in WSW 12.0 mph 20.0 mph 92 % 0.00 in 54 W/m2
14:14 47.7 °F 45.5 °F 29.95 in WSW 11.0 mph 20.0 mph 92 % 0.00 in 54 W/m2
14:17 47.8 °F 45.6 °F 29.95 in WSW 7.0 mph 16.0 mph 92 % 0.00 in 49 W/m2
14:19 47.8 °F 45.6 °F 29.95 in WSW 9.0 mph 16.0 mph 92 % 0.00 in 53 W/m2
14:24 47.8 °F 45.3 °F 29.96 in West 9.0 mph 12.0 mph 91 % 0.00 in 39 W/m2
14:25 47.8 °F 45.3 °F 29.95 in West 8.0 mph 15.0 mph 91 % 0.00 in 35 W/m2
14:31 48.0 °F 45.5 °F 29.95 in West 9.0 mph 14.0 mph 91 % 0.00 in 28 W/m2
14:36 48.0 °F 45.5 °F 29.95 in West 9.0 mph 15.0 mph 91 % 0.00 in 33 W/m2
14:37 48.0 °F 45.5 °F 29.95 in West 9.0 mph 15.0 mph 91 % 0.00 in 33 W/m2
14:42 48.0 °F 45.5 °F 29.96 in West 9.0 mph 14.0 mph 91 % 0.00 in 16 W/m2
14:43 48.0 °F 45.5 °F 29.96 in West 9.0 mph 14.0 mph 91 % 0.00 in 16 W/m2
14:48 48.0 °F 45.5 °F 29.96 in WSW 9.0 mph 15.0 mph 91 % 0.00 in 16 W/m2
14:50 48.0 °F 45.5 °F 29.96 in WSW 5.0 mph 11.0 mph 91 % 0.00 in 14 W/m2
14:53 47.8 °F 45.3 °F 29.96 in WSW 6.0 mph 9.0 mph 91 % 0.00 in 14 W/m2
14:58 47.8 °F 45.3 °F 29.96 in West 8.0 mph 14.0 mph 91 % 0.00 in 12 W/m2
14:59 47.8 °F 45.3 °F 29.96 in West 8.0 mph 14.0 mph 91 % 0.00 in 12 W/m2
15:04 47.8 °F 45.3 °F 29.96 in West 8.0 mph 13.0 mph 91 % 0.00 in 7 W/m2
15:06 47.8 °F 45.3 °F 29.96 in West 10.0 mph 18.0 mph 91 % 0.00 in 7 W/m2
15:07 47.8 °F 45.3 °F 29.96 in West 9.0 mph 15.0 mph 91 % 0.00 in 7 W/m2
15:13 48.0 °F 45.5 °F 29.96 in West 11.0 mph 18.0 mph 91 % 0.00 in 9 W/m2
15:18 48.0 °F 45.5 °F 29.96 in WSW 10.0 mph 15.0 mph 91 % 0.00 in 7 W/m2
15:20 48.0 °F 45.5 °F 29.96 in WSW 7.0 mph 13.0 mph 91 % 0.00 in 7 W/m2
15:23 48.0 °F 45.5 °F 29.96 in WSW 10.0 mph 14.0 mph 91 % 0.00 in 9 W/m2
15:28 48.0 °F 45.5 °F 29.96 in West 7.0 mph 12.0 mph 91 % 0.00 in 5 W/m2
15:29 48.0 °F 45.5 °F 29.96 in West 7.0 mph 12.0 mph 91 % 0.00 in 5 W/m2
15:33 47.8 °F 45.3 °F 29.97 in West 7.0 mph 11.0 mph 91 % 0.00 in 0 W/m2
15:37 47.8 °F 45.3 °F 29.97 in West 9.0 mph 11.0 mph 91 % 0.00 in 0 W/m2
15:42 47.8 °F 45.3 °F 29.97 in West 6.0 mph 10.0 mph 91 % 0.00 in 0 W/m2
15:43 47.8 °F 45.3 °F 29.97 in West 6.0 mph 9.0 mph 91 % 0.00 in 0 W/m2
15:48 47.8 °F 45.6 °F 29.97 in WSW 8.0 mph 13.0 mph 92 % 0.00 in 0 W/m2
15:54 47.8 °F 45.6 °F 29.97 in WSW 7.0 mph 11.0 mph 92 % 0.00 in 0 W/m2
15:59 47.8 °F 45.6 °F 29.97 in West 6.0 mph 7.0 mph 92 % 0.00 in 0 W/m2
16:00 47.8 °F 45.6 °F 29.97 in West 4.0 mph 7.0 mph 92 % 0.00 in 0 W/m2
16:05 47.8 °F 45.6 °F 29.97 in West 8.0 mph 14.0 mph 92 % 0.00 in 0 W/m2
16:06 47.8 °F 45.6 °F 29.97 in West 8.0 mph 13.0 mph 92 % 0.00 in 0 W/m2
16:07 47.8 °F 45.6 °F 29.97 in WNW 8.0 mph 13.0 mph 92 % 0.00 in 0 W/m2
16:12 47.8 °F 45.6 °F 29.97 in West 7.0 mph 11.0 mph 92 % 0.00 in 0 W/m2
16:17 47.7 °F 45.5 °F 29.98 in West 7.0 mph 11.0 mph 92 % 0.00 in 0 W/m2
16:18 47.7 °F 45.5 °F 29.98 in West 7.0 mph 11.0 mph 92 % 0.00 in 0 W/m2
16:20 47.7 °F 45.5 °F 29.97 in West 7.0 mph 11.0 mph 92 % 0.00 in 0 W/m2
16:24 47.7 °F 45.5 °F 29.98 in West 8.0 mph 14.0 mph 92 % 0.00 in 0 W/m2
16:28 47.7 °F 45.5 °F 29.98 in West 6.0 mph 9.0 mph 92 % 0.00 in 0 W/m2
16:30 47.7 °F 45.5 °F 29.98 in West 6.0 mph 9.0 mph 92 % 0.00 in 0 W/m2
16:35 47.7 °F 45.7 °F 29.97 in WSW 7.0 mph 10.0 mph 93 % 0.00 in 0 W/m2
16:36 47.7 °F 45.7 °F 29.97 in WSW 5.0 mph 10.0 mph 93 % 0.00 in 0 W/m2
16:41 47.8 °F 45.9 °F 29.97 in West 9.0 mph 16.0 mph 93 % 0.00 in 0 W/m2
16:44 47.8 °F 45.9 °F 29.98 in West 9.0 mph 16.0 mph 93 % 0.00 in 0 W/m2
16:49 48.0 °F 46.1 °F 29.98 in WNW 6.0 mph 10.0 mph 93 % 0.00 in 0 W/m2
16:51 48.0 °F 46.1 °F 29.98 in WNW 7.0 mph 12.0 mph 93 % 0.00 in 0 W/m2
16:55 48.0 °F 46.1 °F 29.98 in WNW 8.0 mph 14.0 mph 93 % 0.00 in 0 W/m2
17:00 48.2 °F 46.3 °F 29.98 in WNW 7.0 mph 12.0 mph 93 % 0.00 in 0 W/m2
17:01 48.2 °F 46.3 °F 29.98 in WNW 7.0 mph 12.0 mph 93 % 0.00 in 0 W/m2
17:06 48.4 °F 46.4 °F 29.98 in West 6.0 mph 9.0 mph 93 % 0.00 in 0 W/m2
17:11 48.4 °F 46.4 °F 29.98 in West 7.0 mph 12.0 mph 93 % 0.00 in 0 W/m2
17:12 48.4 °F 46.4 °F 29.98 in West 7.0 mph 11.0 mph 93 % 0.00 in 0 W/m2
17:17 48.4 °F 46.2 °F 29.98 in WNW 8.0 mph 18.0 mph 92 % 0.00 in 0 W/m2
17:19 48.6 °F 46.3 °F 29.98 in WNW 8.0 mph 12.0 mph 92 % 0.00 in 0 W/m2
17:24 48.6 °F 46.3 °F 29.98 in WNW 11.0 mph 19.0 mph 92 % 0.00 in 0 W/m2
17:26 48.7 °F 46.5 °F 29.98 in WNW 11.0 mph 18.0 mph 92 % 0.00 in 0 W/m2
17:30 48.7 °F 46.5 °F 29.98 in WNW 10.0 mph 18.0 mph 92 % 0.00 in 0 W/m2
17:34 48.9 °F 46.7 °F 29.98 in WNW 12.0 mph 20.0 mph 92 % 0.00 in 0 W/m2
17:39 48.9 °F 46.7 °F 29.98 in WNW 14.0 mph 21.0 mph 92 % 0.00 in 0 W/m2
17:43 48.9 °F 46.4 °F 29.98 in WNW 14.0 mph 21.0 mph 91 % 0.00 in 0 W/m2
17:45 48.7 °F 46.2 °F 29.98 in WNW 14.0 mph 26.0 mph 91 % 0.00 in 0 W/m2
17:50 48.6 °F 45.8 °F 29.99 in WNW 13.0 mph 20.0 mph 90 % 0.00 in 0 W/m2
17:55 48.4 °F 45.3 °F 29.99 in WNW 14.0 mph 21.0 mph 89 % 0.00 in 0 W/m2
17:58 48.4 °F 45.3 °F 30.00 in WNW 9.0 mph 15.0 mph 89 % 0.00 in 0 W/m2
18:01 48.2 °F 44.8 °F 30.00 in WNW 8.0 mph 15.0 mph 88 % 0.00 in 0 W/m2
18:06 48.0 °F 44.6 °F 30.01 in WNW 11.0 mph 15.0 mph 88 % 0.00 in 0 W/m2
18:11 47.8 °F 44.2 °F 30.01 in WNW 10.0 mph 15.0 mph 87 % 0.00 in 0 W/m2
18:12 47.8 °F 44.2 °F 30.01 in WNW 10.0 mph 15.0 mph 87 % 0.00 in 0 W/m2
18:17 47.5 °F 43.8 °F 30.02 in WNW 8.0 mph 11.0 mph 87 % 0.00 in 0 W/m2
18:19 47.5 °F 43.5 °F 30.02 in WNW 8.0 mph 12.0 mph 86 % 0.00 in 0 W/m2
18:24 47.1 °F 42.8 °F 30.02 in WNW 12.0 mph 19.0 mph 85 % 0.00 in 0 W/m2
18:26 46.9 °F 42.7 °F 30.02 in WNW 12.0 mph 23.0 mph 85 % 0.00 in 0 W/m2
18:28 46.9 °F 42.7 °F 30.02 in WNW 13.0 mph 23.0 mph 85 % 0.00 in 0 W/m2
18:33 46.8 °F 42.2 °F 30.03 in WNW 13.0 mph 20.0 mph 84 % 0.00 in 0 W/m2
18:34 46.8 °F 42.2 °F 30.03 in WNW 14.0 mph 20.0 mph 84 % 0.00 in 0 W/m2
18:39 46.6 °F 42.3 °F 30.03 in WNW 11.0 mph 16.0 mph 85 % 0.00 in 0 W/m2
18:44 46.2 °F 42.0 °F 30.02 in WNW 14.0 mph 21.0 mph 85 % 0.00 in 0 W/m2
18:46 46.2 °F 42.0 °F 30.02 in WNW 15.0 mph 24.0 mph 85 % 0.00 in 0 W/m2
18:52 46.0 °F 42.1 °F 30.02 in WNW 11.0 mph 19.0 mph 86 % 0.00 in 0 W/m2
18:57 45.7 °F 41.7 °F 30.02 in WNW 13.0 mph 20.0 mph 86 % 0.00 in 0 W/m2
19:02 45.7 °F 41.7 °F 30.03 in WNW 13.0 mph 25.0 mph 86 % 0.00 in 0 W/m2
19:04 45.5 °F 41.6 °F 30.03 in WNW 13.0 mph 25.0 mph 86 % 0.00 in 0 W/m2
19:09 45.5 °F 41.6 °F 30.04 in WNW 12.0 mph 26.0 mph 86 % 0.00 in 0 W/m2
19:10 45.5 °F 41.6 °F 30.04 in WNW 15.0 mph 26.0 mph 86 % 0.00 in 0 W/m2
19:12 45.5 °F 41.6 °F 30.04 in WNW 13.0 mph 25.0 mph 86 % 0.00 in 0 W/m2
19:16 45.5 °F 41.6 °F 30.04 in NW 11.0 mph 19.0 mph 86 % 0.00 in 0 W/m2
19:17 45.5 °F 41.6 °F 30.05 in WNW 12.0 mph 19.0 mph 86 % 0.00 in 0 W/m2
19:19 45.3 °F 41.4 °F 30.05 in NW 12.0 mph 19.0 mph 86 % 0.00 in 0 W/m2
19:24 45.3 °F 41.4 °F 30.05 in WNW 12.0 mph 20.0 mph 86 % 0.00 in 0 W/m2
19:29 45.1 °F 41.2 °F 30.06 in NW 10.0 mph 16.0 mph 86 % 0.00 in 0 W/m2
19:30 45.1 °F 41.2 °F 30.06 in NW 10.0 mph 16.0 mph 86 % 0.00 in 0 W/m2
19:35 45.0 °F 41.3 °F 30.06 in WNW 9.0 mph 16.0 mph 87 % 0.00 in 0 W/m2
19:40 44.8 °F 41.1 °F 30.07 in NW 8.0 mph 14.0 mph 87 % 0.00 in 0 W/m2
19:42 44.8 °F 41.1 °F 30.07 in NW 7.0 mph 11.0 mph 87 % 0.00 in 0 W/m2
19:47 44.6 °F 41.0 °F 30.07 in WNW 8.0 mph 14.0 mph 87 % 0.00 in 0 W/m2
19:48 44.6 °F 41.0 °F 30.07 in WNW 8.0 mph 14.0 mph 87 % 0.00 in 0 W/m2
19:53 44.4 °F 40.5 °F 30.08 in WNW 9.0 mph 22.0 mph 86 % 0.00 in 0 W/m2
19:54 44.4 °F 40.5 °F 30.08 in WNW 9.0 mph 22.0 mph 86 % 0.00 in 0 W/m2
19:59 44.4 °F 40.5 °F 30.09 in NW 7.0 mph 13.0 mph 86 % 0.00 in 0 W/m2
20:02 44.4 °F 40.5 °F 30.09 in NW 7.0 mph 15.0 mph 86 % 0.00 in 0 W/m2
20:06 44.2 °F 40.3 °F 30.10 in NW 7.0 mph 11.0 mph 86 % 0.00 in 0 W/m2
20:07 44.2 °F 40.3 °F 30.10 in NW 8.0 mph 13.0 mph 86 % 0.00 in 0 W/m2
20:12 44.2 °F 40.3 °F 30.10 in WNW 7.0 mph 11.0 mph 86 % 0.00 in 0 W/m2
20:17 44.1 °F 40.1 °F 30.10 in NW 6.0 mph 9.0 mph 86 % 0.00 in 0 W/m2
20:22 43.9 °F 40.0 °F 30.10 in NW 9.0 mph 13.0 mph 86 % 0.00 in 0 W/m2
20:23 43.9 °F 40.0 °F 30.10 in WNW 8.0 mph 13.0 mph 86 % 0.00 in 0 W/m2
20:28 43.7 °F 39.5 °F 30.11 in WNW 10.0 mph 16.0 mph 85 % 0.00 in 0 W/m2
20:29 43.7 °F 39.5 °F 30.11 in WNW 9.0 mph 16.0 mph 85 % 0.00 in 0 W/m2
20:34 43.5 °F 39.3 °F 30.11 in NW 7.0 mph 14.0 mph 85 % 0.00 in 0 W/m2
20:37 43.3 °F 39.1 °F 30.11 in NW 7.0 mph 13.0 mph 85 % 0.00 in 0 W/m2
20:42 43.3 °F 38.8 °F 30.12 in NW 7.0 mph 11.0 mph 84 % 0.00 in 0 W/m2
20:44 43.3 °F 38.8 °F 30.12 in NW 6.0 mph 10.0 mph 84 % 0.00 in 0 W/m2
20:49 43.2 °F 38.3 °F 30.12 in NW 6.0 mph 9.0 mph 83 % 0.00 in 0 W/m2
20:51 43.2 °F 38.3 °F 30.12 in NW 7.0 mph 12.0 mph 83 % 0.00 in 0 W/m2
20:57 43.0 °F 38.2 °F 30.11 in NW 9.0 mph 13.0 mph 83 % 0.00 in 0 W/m2
21:02 42.8 °F 38.3 °F 30.12 in NW 6.0 mph 13.0 mph 84 % 0.00 in 0 W/m2
21:04 42.8 °F 38.3 °F 30.12 in NW 8.0 mph 13.0 mph 84 % 0.00 in 0 W/m2
21:09 42.6 °F 38.1 °F 30.12 in NW 7.0 mph 11.0 mph 84 % 0.00 in 0 W/m2
21:11 42.6 °F 38.1 °F 30.13 in NW 6.0 mph 11.0 mph 84 % 0.00 in 0 W/m2
21:16 42.4 °F 37.9 °F 30.13 in NW 6.0 mph 11.0 mph 84 % 0.00 in 0 W/m2
21:20 42.3 °F 38.1 °F 30.13 in NW 7.0 mph 10.0 mph 85 % 0.00 in 0 W/m2
21:22 42.3 °F 38.1 °F 30.13 in WNW 7.0 mph 10.0 mph 85 % 0.00 in 0 W/m2
21:27 42.1 °F 37.9 °F 30.14 in WNW 7.0 mph 10.0 mph 85 % 0.00 in 0 W/m2
21:28 42.1 °F 37.9 °F 30.14 in WNW 6.0 mph 10.0 mph 85 % 0.00 in 0 W/m2
21:33 41.7 °F 37.5 °F 30.14 in WNW 4.0 mph 8.0 mph 85 % 0.00 in 0 W/m2
21:38 41.5 °F 37.4 °F 30.15 in WNW 6.0 mph 10.0 mph 85 % 0.00 in 0 W/m2
21:41 41.4 °F 37.2 °F 30.15 in WNW 7.0 mph 9.0 mph 85 % 0.00 in 0 W/m2
21:46 41.2 °F 37.0 °F 30.15 in WNW 7.0 mph 11.0 mph 85 % 0.00 in 0 W/m2
21:51 41.0 °F 36.8 °F 30.15 in WNW 8.0 mph 13.0 mph 85 % 0.00 in 0 W/m2
21:53 40.8 °F 36.7 °F 30.15 in WNW 8.0 mph 14.0 mph 85 % 0.00 in 0 W/m2
21:58 40.8 °F 36.7 °F 30.15 in NW 9.0 mph 14.0 mph 85 % 0.00 in 0 W/m2
22:01 40.8 °F 36.7 °F 30.15 in NW 8.0 mph 13.0 mph 85 % 0.00 in 0 W/m2
22:05 40.8 °F 36.4 °F 30.15 in NW 7.0 mph 12.0 mph 84 % 0.00 in 0 W/m2
22:10 41.0 °F 36.5 °F 30.15 in NW 8.0 mph 12.0 mph 84 % 0.00 in 0 W/m2
22:12 41.0 °F 36.5 °F 30.16 in WNW 8.0 mph 12.0 mph 84 % 0.00 in 0 W/m2
22:17 40.8 °F 36.1 °F 30.16 in WNW 5.0 mph 8.0 mph 83 % 0.00 in 0 W/m2
22:18 40.8 °F 36.1 °F 30.16 in WNW 6.0 mph 10.0 mph 83 % 0.00 in 0 W/m2
22:23 40.8 °F 36.1 °F 30.16 in WNW 7.0 mph 12.0 mph 83 % 0.00 in 0 W/m2
22:25 40.6 °F 36.2 °F 30.16 in WNW 7.0 mph 11.0 mph 84 % 0.00 in 0 W/m2
22:26 40.6 °F 36.2 °F 30.17 in WNW 7.0 mph 10.0 mph 84 % 0.00 in 0 W/m2
22:31 40.6 °F 36.2 °F 30.17 in WNW 6.0 mph 9.0 mph 84 % 0.00 in 0 W/m2
22:34 40.6 °F 36.2 °F 30.17 in WNW 5.0 mph 10.0 mph 84 % 0.00 in 0 W/m2
22:35 40.6 °F 36.2 °F 30.17 in WNW 5.0 mph 7.0 mph 84 % 0.00 in 0 W/m2
22:40 40.5 °F 36.0 °F 30.17 in WNW 7.0 mph 10.0 mph 84 % 0.00 in 0 W/m2
22:42 40.3 °F 35.8 °F 30.17 in NW 6.0 mph 10.0 mph 84 % 0.00 in 0 W/m2
22:45 40.3 °F 36.1 °F 30.17 in WNW 6.0 mph 12.0 mph 85 % 0.00 in 0 W/m2
22:48 40.3 °F 36.1 °F 30.17 in WNW 7.0 mph 10.0 mph 85 % 0.00 in 0 W/m2
22:53 40.3 °F 36.1 °F 30.17 in WNW 4.0 mph 8.0 mph 85 % 0.00 in 0 W/m2
22:54 40.3 °F 36.1 °F 30.17 in WNW 4.0 mph 8.0 mph 85 % 0.00 in 0 W/m2
22:59 40.1 °F 36.0 °F 30.17 in WNW 3.0 mph 6.0 mph 85 % 0.00 in 0 W/m2
23:02 39.9 °F 35.8 °F 30.17 in WNW 4.0 mph 7.0 mph 85 % 0.00 in 0 W/m2
23:06 39.7 °F 35.6 °F 30.17 in WNW 4.0 mph 9.0 mph 85 % 0.00 in 0 W/m2
23:07 39.7 °F 35.9 °F 30.17 in WNW 5.0 mph 9.0 mph 86 % 0.00 in 0 W/m2
23:12 39.7 °F 35.9 °F 30.18 in WNW 6.0 mph 9.0 mph 86 % 0.00 in 0 W/m2
23:13 39.7 °F 35.9 °F 30.18 in WNW 6.0 mph 9.0 mph 86 % 0.00 in 0 W/m2
23:18 39.7 °F 35.9 °F 30.18 in WNW 5.0 mph 7.0 mph 86 % 0.00 in 0 W/m2
23:19 39.7 °F 35.9 °F 30.18 in West 5.0 mph 7.0 mph 86 % 0.00 in 0 W/m2
23:20 39.7 °F 35.9 °F 30.18 in West 5.0 mph 7.0 mph 86 % 0.00 in 0 W/m2
23:25 39.6 °F 35.7 °F 30.18 in West 5.0 mph 8.0 mph 86 % 0.00 in 0 W/m2
23:28 39.6 °F 35.7 °F 30.18 in WNW 5.0 mph 8.0 mph 86 % 0.00 in 0 W/m2
23:33 39.4 °F 35.8 °F 30.18 in WNW 6.0 mph 8.0 mph 87 % 0.00 in 0 W/m2
23:37 39.2 °F 35.7 °F 30.18 in WNW 6.0 mph 9.0 mph 87 % 0.00 in 0 W/m2
23:42 39.2 °F 35.7 °F 30.18 in WNW 7.0 mph 11.0 mph 87 % 0.00 in 0 W/m2
23:43 39.2 °F 35.7 °F 30.18 in WNW 7.0 mph 11.0 mph 87 % 0.00 in 0 W/m2
23:48 39.4 °F 35.8 °F 30.19 in WNW 6.0 mph 11.0 mph 87 % 0.00 in 0 W/m2
23:50 39.6 °F 36.0 °F 30.19 in WNW 6.0 mph 8.0 mph 87 % 0.00 in 0 W/m2
23:55 39.6 °F 36.0 °F 30.19 in WNW 7.0 mph 9.0 mph 87 % 0.00 in 0 W/m2
Delerius-Weather
Compliments of Weather Underground - 3 mb

Data updates at regular intervals.